createdAt,value
2023-05-21T00:01:16.499Z,13.32
2023-05-21T00:03:45.958Z,12.77
2023-05-21T00:06:15.530Z,12.38
2023-05-21T00:08:43.457Z,12.00
2023-05-21T00:11:11.093Z,14.10
2023-05-21T00:13:38.722Z,13.15
2023-05-21T00:16:07.044Z,11.48
2023-05-21T00:18:35.246Z,11.77
2023-05-21T00:21:03.032Z,13.18
2023-05-21T00:23:32.837Z,13.80
2023-05-21T00:26:00.609Z,12.75
2023-05-21T00:28:28.260Z,12.30
2023-05-21T00:30:56.046Z,12.45
2023-05-21T00:33:26.427Z,12.20
2023-05-21T00:35:54.204Z,12.20
2023-05-21T00:38:22.134Z,13.10
2023-05-21T00:40:51.184Z,11.85
2023-05-21T00:43:18.826Z,12.07
2023-05-21T00:45:47.444Z,14.30
2023-05-21T00:48:16.028Z,14.00
2023-05-21T00:50:44.965Z,14.57
2023-05-21T00:53:13.470Z,12.27
2023-05-21T00:55:42.070Z,14.93
2023-05-21T00:58:11.135Z,12.32
2023-05-21T01:00:40.523Z,12.77
2023-05-21T01:03:08.344Z,12.63
2023-05-21T01:05:36.965Z,16.00
2023-05-21T01:08:05.640Z,15.10
2023-05-21T01:10:33.546Z,13.07
2023-05-21T01:13:01.500Z,13.48
2023-05-21T01:15:30.827Z,12.40
2023-05-21T01:17:58.586Z,13.77
2023-05-21T01:20:26.415Z,12.50
2023-05-21T01:22:56.520Z,14.10
2023-05-21T01:25:25.087Z,14.43
2023-05-21T01:27:52.940Z,13.43
2023-05-21T01:30:22.792Z,15.05
2023-05-21T01:32:56.277Z,12.13
2023-05-21T01:35:29.785Z,13.13
2023-05-21T01:38:03.971Z,13.73
2023-05-21T01:40:38.310Z,11.93
2023-05-21T01:43:08.220Z,15.25
2023-05-21T01:45:39.733Z,13.27
2023-05-21T01:48:09.309Z,13.43
2023-05-21T01:50:39.026Z,11.25
2023-05-21T01:53:08.052Z,12.50
2023-05-21T01:55:39.529Z,13.93
2023-05-21T01:58:07.221Z,14.40
2023-05-21T02:00:34.847Z,13.07
2023-05-21T02:03:02.669Z,11.45
2023-05-21T02:05:30.496Z,16.35
2023-05-21T02:08:00.572Z,14.75
2023-05-21T02:10:29.607Z,13.18
2023-05-21T02:12:57.201Z,12.82
2023-05-21T02:15:24.960Z,12.90
2023-05-21T02:17:53.073Z,13.40
2023-05-21T02:20:22.285Z,13.77
2023-05-21T02:22:50.484Z,11.43
2023-05-21T02:25:19.894Z,11.90
2023-05-21T02:27:53.912Z,14.73
2023-05-21T02:30:21.805Z,13.80
2023-05-21T02:32:50.781Z,11.40
2023-05-21T02:35:18.633Z,13.20
2023-05-21T02:37:46.238Z,13.75
2023-05-21T02:40:14.154Z,14.00
2023-05-21T02:42:42.178Z,11.85
2023-05-21T02:45:13.554Z,13.20
2023-05-21T02:47:41.443Z,15.40
2023-05-21T02:50:10.546Z,11.98
2023-05-21T02:52:38.151Z,15.20
2023-05-21T02:55:06.546Z,11.85
2023-05-21T02:57:34.176Z,12.35
2023-05-21T03:00:01.819Z,15.85
2023-05-21T03:02:30.963Z,13.80
2023-05-21T03:04:58.940Z,12.10
2023-05-21T03:07:26.779Z,12.60
2023-05-21T03:09:54.405Z,16.02
2023-05-21T03:12:22.038Z,13.45
2023-05-21T03:14:51.391Z,11.27
2023-05-21T03:17:20.580Z,12.88
2023-05-21T03:19:50.094Z,13.10
2023-05-21T03:22:17.743Z,14.35
2023-05-21T03:24:46.315Z,11.35
2023-05-21T03:27:14.048Z,12.18
2023-05-21T03:29:43.203Z,11.55
2023-05-21T03:32:10.935Z,12.90
2023-05-21T03:34:38.509Z,15.60
2023-05-21T03:37:07.648Z,12.57
2023-05-21T03:39:35.238Z,13.27
2023-05-21T03:42:02.875Z,12.30
2023-05-21T03:44:32.397Z,13.38
2023-05-21T03:47:00.144Z,11.70
2023-05-21T03:49:27.851Z,12.30
2023-05-21T03:51:55.509Z,12.98
2023-05-21T03:54:24.487Z,12.32
2023-05-21T03:56:52.095Z,13.32
2023-05-21T03:59:19.739Z,12.55
2023-05-21T04:01:47.331Z,16.42
2023-05-21T04:04:15.185Z,12.48
2023-05-21T04:06:42.852Z,12.27
2023-05-21T04:09:10.487Z,15.85
2023-05-21T04:11:39.407Z,15.73
2023-05-21T04:14:07.230Z,12.77
2023-05-21T04:16:35.994Z,12.35
2023-05-21T04:19:03.682Z,12.70
2023-05-21T04:21:32.219Z,14.30
2023-05-21T04:24:00.856Z,14.35
2023-05-21T04:26:29.506Z,14.65
2023-05-21T04:28:59.384Z,13.10
2023-05-21T04:31:27.086Z,12.75
2023-05-21T04:33:54.737Z,12.57
2023-05-21T04:36:22.366Z,14.05
2023-05-21T04:38:49.971Z,12.38
2023-05-21T04:41:18.928Z,13.50
2023-05-21T04:43:46.676Z,12.90
2023-05-21T04:46:15.818Z,15.27
2023-05-21T04:48:45.128Z,15.98
2023-05-21T04:51:12.752Z,12.77
2023-05-21T04:53:40.484Z,13.35
2023-05-21T04:56:09.261Z,13.57
2023-05-21T04:58:37.234Z,14.05
2023-05-21T05:01:05.031Z,12.30
2023-05-21T05:03:34.046Z,12.02
2023-05-21T05:06:04.289Z,14.13
2023-05-21T05:08:31.928Z,14.65
2023-05-21T05:10:59.564Z,12.85
2023-05-21T05:13:27.184Z,15.60
2023-05-21T05:15:54.949Z,11.82
2023-05-21T05:18:22.588Z,17.33
2023-05-21T05:20:51.568Z,11.63
2023-05-21T05:23:19.144Z,12.18
2023-05-21T05:25:46.832Z,12.73
2023-05-21T05:28:14.494Z,13.50
2023-05-21T05:30:42.137Z,13.95
2023-05-21T05:33:09.821Z,11.95
2023-05-21T05:35:37.733Z,12.48
2023-05-21T05:38:08.848Z,14.07
2023-05-21T05:40:36.487Z,10.75
2023-05-21T05:43:04.163Z,10.80
2023-05-21T05:45:31.762Z,10.77
2023-05-21T05:47:59.376Z,10.57
2023-05-21T05:50:27.058Z,11.68
2023-05-21T05:52:54.710Z,11.75
2023-05-21T05:55:25.128Z,9.38
2023-05-21T05:57:52.734Z,12.93
2023-05-21T06:00:20.912Z,11.48
2023-05-21T06:02:49.202Z,10.80
2023-05-21T06:05:17.249Z,11.65
2023-05-21T06:07:44.954Z,9.80
2023-05-21T06:10:12.597Z,9.70
2023-05-21T06:12:41.590Z,10.48
2023-05-21T06:15:10.301Z,9.02
2023-05-21T06:17:37.973Z,10.75
2023-05-21T06:20:07.250Z,13.65
2023-05-21T06:22:34.901Z,8.73
2023-05-21T06:25:02.502Z,8.88
2023-05-21T06:27:30.619Z,10.02
2023-05-21T06:29:59.531Z,8.25
2023-05-21T06:32:27.153Z,8.80
2023-05-21T06:34:54.763Z,8.40
2023-05-21T06:37:23.456Z,8.68
2023-05-21T06:39:52.402Z,9.35
2023-05-21T06:42:19.960Z,7.38
2023-05-21T06:44:47.517Z,7.40
2023-05-21T06:47:16.423Z,7.82
2023-05-21T06:49:43.997Z,7.75
2023-05-21T06:52:11.561Z,11.38
2023-05-21T06:54:39.240Z,7.45
2023-05-21T06:57:06.880Z,7.47
2023-05-21T06:59:34.636Z,7.82
2023-05-21T07:02:04.491Z,7.72
2023-05-21T07:04:35.263Z,7.65
2023-05-21T07:07:04.473Z,7.85
2023-05-21T07:09:32.161Z,6.70
2023-05-21T07:12:01.242Z,6.55
2023-05-21T07:14:28.851Z,8.35
2023-05-21T07:16:56.451Z,7.22
2023-05-21T07:19:24.103Z,6.60
2023-05-21T07:21:53.081Z,7.45
2023-05-21T07:24:21.113Z,7.88
2023-05-21T07:26:48.723Z,7.18
2023-05-21T07:29:16.363Z,7.88
2023-05-21T07:31:43.967Z,8.00
2023-05-21T07:34:11.544Z,7.75
2023-05-21T07:36:39.137Z,6.72
2023-05-21T07:39:08.364Z,6.93
2023-05-21T07:41:36.080Z,7.43
2023-05-21T07:44:03.716Z,6.40
2023-05-21T07:46:31.334Z,6.28
2023-05-21T07:48:58.993Z,6.43
2023-05-21T07:51:27.058Z,6.88
2023-05-21T07:53:55.381Z,6.95
2023-05-21T07:56:24.628Z,6.30
2023-05-21T07:58:52.185Z,6.05
2023-05-21T08:01:19.833Z,7.15
2023-05-21T08:03:47.529Z,8.27
2023-05-21T08:06:15.237Z,6.03
2023-05-21T08:08:42.831Z,6.50
2023-05-21T08:11:10.426Z,6.22
2023-05-21T08:13:39.355Z,7.47
2023-05-21T08:16:07.664Z,7.45
2023-05-21T08:18:35.279Z,8.95
2023-05-21T08:21:02.968Z,11.35
2023-05-21T08:23:30.536Z,6.53
2023-05-21T08:25:58.258Z,6.15
2023-05-21T08:28:27.510Z,6.57
2023-05-21T08:30:56.469Z,8.77
2023-05-21T08:33:24.074Z,7.45
2023-05-21T08:35:51.660Z,13.45
2023-05-21T08:38:19.235Z,7.57
2023-05-21T08:40:48.071Z,8.98
2023-05-21T08:43:16.541Z,7.30
2023-05-21T08:45:46.415Z,7.60
2023-05-21T08:48:17.439Z,6.80
2023-05-21T08:50:46.148Z,7.63
2023-05-21T08:53:26.653Z,7.13
2023-05-21T08:55:59.838Z,6.22
2023-05-21T08:58:28.084Z,7.22
2023-05-21T09:00:57.541Z,7.72
2023-05-21T09:03:27.427Z,10.55
2023-05-21T09:05:56.145Z,8.45
2023-05-21T09:08:30.774Z,5.95
2023-05-21T09:10:58.338Z,6.20
2023-05-21T09:13:27.446Z,9.00
2023-05-21T09:15:55.044Z,10.38
2023-05-21T09:18:22.666Z,6.38
2023-05-21T09:20:54.033Z,7.90
2023-05-21T09:23:21.649Z,6.23
2023-05-21T09:25:51.918Z,6.28
2023-05-21T09:28:21.319Z,6.72
2023-05-21T09:30:50.567Z,9.18
2023-05-21T09:33:26.578Z,6.45
2023-05-21T09:35:55.502Z,6.63
2023-05-21T09:38:24.510Z,5.93
2023-05-21T09:40:52.103Z,7.97
2023-05-21T09:43:19.726Z,6.03
2023-05-21T09:45:54.281Z,6.30
2023-05-21T09:48:35.697Z,6.50
2023-05-21T09:51:16.004Z,6.53
2023-05-21T09:53:49.842Z,6.10
2023-05-21T09:56:20.071Z,7.20
2023-05-21T09:58:47.682Z,8.05
2023-05-21T10:01:15.348Z,6.95
2023-05-21T10:03:45.508Z,5.75
2023-05-21T10:06:15.798Z,6.20
2023-05-21T10:08:48.843Z,6.22
2023-05-21T10:11:17.730Z,6.80
2023-05-21T10:13:51.939Z,7.85
2023-05-21T10:16:19.987Z,6.75
2023-05-21T10:18:49.600Z,11.02
2023-05-21T10:21:19.401Z,8.75
2023-05-21T10:23:47.350Z,8.40
2023-05-21T10:26:15.453Z,6.93
2023-05-21T10:28:43.872Z,7.10
2023-05-21T10:31:13.147Z,6.88
2023-05-21T10:33:43.176Z,6.90
2023-05-21T10:36:11.127Z,7.20
2023-05-21T10:38:41.571Z,6.95
2023-05-21T10:41:10.664Z,7.63
2023-05-21T10:43:57.460Z,7.32
2023-05-21T10:47:06.500Z,6.00
2023-05-21T10:49:50.129Z,5.60
2023-05-21T10:52:32.477Z,7.45
2023-05-21T10:55:23.531Z,6.07
2023-05-21T10:58:14.933Z,8.07
2023-05-21T11:00:44.320Z,6.60
2023-05-21T11:03:15.949Z,6.28
2023-05-21T11:05:53.818Z,6.32
2023-05-21T11:08:31.656Z,6.60
2023-05-21T11:11:00.654Z,12.15
2023-05-21T11:13:31.308Z,8.55
2023-05-21T11:16:08.963Z,7.20
2023-05-21T11:18:58.091Z,7.25
2023-05-21T11:21:28.483Z,7.53
2023-05-21T11:23:57.322Z,9.27
2023-05-21T11:26:28.281Z,8.15
2023-05-21T11:29:08.490Z,9.00
2023-05-21T11:31:39.484Z,9.07
2023-05-21T11:34:12.852Z,7.25
2023-05-21T11:36:42.125Z,5.50
2023-05-21T11:39:11.000Z,6.13
2023-05-21T11:42:01.609Z,6.85
2023-05-21T11:44:41.198Z,8.93
2023-05-21T11:47:10.217Z,10.52
2023-05-21T11:49:39.122Z,7.30
2023-05-21T11:52:09.404Z,6.72
2023-05-21T11:54:53.089Z,12.68
2023-05-21T11:57:41.226Z,5.93
2023-05-21T12:00:22.040Z,5.47
2023-05-21T12:02:56.120Z,5.82
2023-05-21T12:05:27.416Z,6.40
2023-05-21T12:07:58.558Z,6.72
2023-05-21T12:10:39.920Z,6.10
2023-05-21T12:13:21.352Z,6.07
2023-05-21T12:16:00.893Z,5.97
2023-05-21T12:18:41.486Z,6.25
2023-05-21T12:21:41.397Z,6.72
2023-05-21T12:24:16.468Z,5.28
2023-05-21T12:26:52.269Z,6.40
2023-05-21T12:32:50.487Z,6.45
2023-05-21T12:35:28.265Z,7.63
2023-05-21T12:38:04.577Z,5.93
2023-05-21T12:40:41.199Z,6.40
2023-05-21T12:43:10.114Z,8.27
2023-05-21T12:45:41.065Z,6.95
2023-05-21T12:48:09.206Z,6.90
2023-05-21T12:50:41.736Z,7.97
2023-05-21T12:53:11.067Z,7.85
2023-05-21T12:55:40.552Z,7.55
2023-05-21T12:58:09.567Z,6.75
2023-05-21T13:00:39.809Z,6.10
2023-05-21T13:03:08.446Z,5.72
2023-05-21T13:05:36.728Z,6.78
2023-05-21T13:08:04.850Z,6.43
2023-05-21T13:10:33.311Z,6.25
2023-05-21T13:13:01.844Z,6.75
2023-05-21T13:15:30.170Z,6.40
2023-05-21T13:18:01.489Z,8.77
2023-05-21T13:20:30.611Z,9.95
2023-05-21T13:22:59.152Z,7.70
2023-05-21T13:25:29.916Z,6.97
2023-05-21T13:27:59.166Z,9.50
2023-05-21T13:30:27.523Z,6.90
2023-05-21T13:32:56.625Z,6.95
2023-05-21T13:35:26.763Z,7.38
2023-05-21T13:37:58.787Z,7.55
2023-05-21T13:40:27.870Z,7.25
2023-05-21T13:42:56.622Z,7.10
2023-05-21T13:45:29.593Z,7.35
2023-05-21T13:48:01.777Z,8.18
2023-05-21T13:53:05.553Z,7.13
2023-05-21T13:55:37.418Z,6.00
2023-05-21T13:58:06.715Z,8.82
2023-05-21T14:00:37.459Z,5.78
2023-05-21T14:03:10.189Z,5.50
2023-05-21T14:05:42.450Z,6.53
2023-05-21T14:08:10.625Z,4.78
2023-05-21T14:10:38.970Z,5.53
2023-05-21T14:13:19.485Z,5.25
2023-05-21T14:15:48.579Z,4.30
2023-05-21T14:18:16.659Z,5.90
2023-05-21T14:21:17.843Z,5.15
2023-05-21T14:24:01.155Z,6.85
2023-05-21T14:26:29.533Z,4.85
2023-05-21T14:28:57.223Z,5.35
2023-05-21T14:31:25.981Z,4.75
2023-05-21T14:33:54.017Z,6.40
2023-05-21T14:36:23.564Z,6.97
2023-05-21T14:38:51.656Z,5.80
2023-05-21T14:41:26.835Z,5.95
2023-05-21T14:43:55.408Z,5.25
2023-05-21T14:46:23.427Z,5.63
2023-05-21T14:48:51.856Z,5.45
2023-05-21T14:51:20.441Z,7.68
2023-05-21T14:53:51.503Z,7.32
2023-05-21T14:56:21.742Z,7.15
2023-05-21T14:58:49.641Z,5.93
2023-05-21T15:01:17.742Z,6.05
2023-05-21T15:03:45.786Z,5.88
2023-05-21T15:06:13.779Z,6.97
2023-05-21T15:08:41.539Z,5.25
2023-05-21T15:11:11.592Z,7.00
2023-05-21T15:13:45.832Z,5.47
2023-05-21T15:16:13.443Z,7.53
2023-05-21T15:18:41.068Z,6.03
2023-05-21T15:21:08.609Z,6.20
2023-05-21T15:23:39.822Z,5.20
2023-05-21T15:26:09.629Z,16.60
2023-05-21T15:28:39.671Z,6.88
2023-05-21T15:31:15.125Z,4.88
2023-05-21T15:33:44.713Z,10.55
2023-05-21T15:36:12.804Z,7.15
2023-05-21T15:38:46.338Z,5.07
2023-05-21T15:42:13.187Z,5.80
2023-05-21T15:45:50.573Z,6.30
2023-05-21T15:52:23.427Z,6.18
2023-05-21T20:06:48.936Z,10.95
2023-05-21T20:09:21.828Z,9.02
2023-05-21T20:11:51.062Z,34.85
2023-05-21T20:14:19.689Z,21.88
2023-05-21T20:16:48.497Z,26.88
2023-05-21T20:19:17.031Z,15.85
2023-05-21T20:22:52.685Z,17.67
2023-05-21T20:26:07.936Z,10.27
2023-05-21T20:29:10.387Z,9.95
2023-05-21T23:21:16.156Z,11.60
2023-05-21T23:23:43.743Z,10.90
2023-05-21T23:26:11.450Z,9.00
2023-05-21T23:28:39.595Z,11.38
2023-05-21T23:31:07.196Z,10.38
2023-05-21T23:33:34.857Z,10.70
2023-05-21T23:36:02.401Z,11.57
2023-05-21T23:38:31.235Z,10.25
2023-05-21T23:40:58.777Z,8.63
2023-05-21T23:43:26.428Z,9.32
2023-05-21T23:45:53.982Z,10.45
2023-05-21T23:48:21.649Z,8.88
2023-05-21T23:50:49.402Z,10.65
2023-05-21T23:53:17.035Z,9.52
2023-05-21T23:55:46.055Z,9.80
2023-05-21T23:58:13.733Z,12.32
